createdAt,value
2023-05-10T00:02:13.382Z,6.98
2023-05-10T00:04:40.495Z,6.94
2023-05-10T00:07:07.836Z,6.91
2023-05-10T00:09:35.852Z,6.90
2023-05-10T00:12:02.903Z,6.88
2023-05-10T00:14:30.014Z,6.90
2023-05-10T00:16:57.114Z,6.91
2023-05-10T00:19:24.181Z,6.92
2023-05-10T00:21:51.354Z,6.93
2023-05-10T00:24:18.341Z,6.93
2023-05-10T00:26:45.802Z,6.93
2023-05-10T00:29:12.942Z,6.94
2023-05-10T00:31:40.005Z,6.94
2023-05-10T00:34:07.080Z,6.95
2023-05-10T00:36:34.107Z,6.95
2023-05-10T00:39:01.626Z,6.94
2023-05-10T00:41:28.807Z,6.94
2023-05-10T00:43:55.935Z,6.92
2023-05-10T00:46:23.983Z,6.90
2023-05-10T00:48:50.990Z,6.88
2023-05-10T00:51:18.052Z,6.85
2023-05-10T00:53:48.264Z,6.83
2023-05-10T00:56:15.255Z,6.81
2023-05-10T00:58:42.423Z,6.78
2023-05-10T01:01:10.389Z,6.76
2023-05-10T01:03:37.460Z,6.73
2023-05-10T01:06:04.701Z,6.71
2023-05-10T01:08:31.637Z,6.69
2023-05-10T01:10:58.609Z,6.66
2023-05-10T01:13:38.449Z,6.64
2023-05-10T01:16:06.016Z,6.61
2023-05-10T01:18:35.693Z,6.59
2023-05-10T01:21:11.669Z,6.56
2023-05-10T01:24:20.932Z,6.52
2023-05-10T01:27:03.049Z,6.46
2023-05-10T01:30:05.041Z,6.41
2023-05-10T01:32:51.695Z,6.37
2023-05-10T01:35:49.406Z,6.33
2023-05-10T01:38:47.343Z,6.30
2023-05-10T01:41:18.849Z,6.26
2023-05-10T01:43:58.916Z,6.23
2023-05-10T01:46:29.872Z,6.19
2023-05-10T01:48:57.375Z,6.17
2023-05-10T01:51:25.565Z,6.14
2023-05-10T01:53:59.082Z,6.12
2023-05-10T01:56:27.204Z,6.10
2023-05-10T01:58:54.299Z,6.08
2023-05-10T02:01:22.081Z,6.07
2023-05-10T02:03:49.073Z,6.05
2023-05-10T02:06:16.098Z,6.05
2023-05-10T02:08:43.047Z,6.05
2023-05-10T02:11:10.037Z,6.06
2023-05-10T02:13:37.028Z,6.07
2023-05-10T02:16:04.074Z,6.09
2023-05-10T02:18:31.536Z,6.10
2023-05-10T02:20:58.768Z,6.12
2023-05-10T02:23:25.740Z,6.12
2023-05-10T02:25:52.783Z,6.13
2023-05-10T02:28:21.127Z,6.15
2023-05-10T02:30:48.121Z,6.17
2023-05-10T02:33:15.093Z,6.19
2023-05-10T02:35:42.055Z,6.23
2023-05-10T02:38:09.364Z,6.26
2023-05-10T02:40:36.919Z,6.29
2023-05-10T02:43:03.860Z,6.32
2023-05-10T02:45:32.357Z,6.34
2023-05-10T02:47:59.560Z,6.37
2023-05-10T02:50:28.480Z,6.41
2023-05-10T02:52:57.509Z,6.46
2023-05-10T02:55:34.458Z,6.53
2023-05-10T02:58:02.370Z,6.62
2023-05-10T03:00:29.527Z,6.79
2023-05-10T03:02:56.798Z,6.98
2023-05-10T03:05:24.502Z,7.16
2023-05-10T03:07:52.514Z,7.36
2023-05-10T03:10:19.869Z,7.55
2023-05-10T03:12:54.765Z,7.69
2023-05-10T03:15:33.078Z,7.80
2023-05-10T03:18:05.570Z,7.89
2023-05-10T03:20:38.404Z,7.97
2023-05-10T03:23:08.678Z,8.04
2023-05-10T03:25:35.699Z,8.12
2023-05-10T03:28:03.639Z,8.19
2023-05-10T03:30:31.323Z,8.28
2023-05-10T03:32:58.561Z,8.37
2023-05-10T03:35:25.987Z,8.47
2023-05-10T03:37:52.980Z,8.59
2023-05-10T03:40:20.912Z,8.69
2023-05-10T03:42:47.927Z,8.80
2023-05-10T03:45:14.908Z,8.92
2023-05-10T03:47:42.023Z,9.02
2023-05-10T03:50:09.178Z,9.13
2023-05-10T03:52:36.114Z,9.24
2023-05-10T03:55:04.797Z,9.35
2023-05-10T03:57:31.963Z,9.45
2023-05-10T03:59:58.994Z,9.58
2023-05-10T04:02:26.087Z,9.88
2023-05-10T04:04:53.789Z,10.55
2023-05-10T04:07:21.090Z,11.39
2023-05-10T04:09:48.101Z,12.24
2023-05-10T04:12:15.051Z,12.99
2023-05-10T04:14:42.006Z,13.37
2023-05-10T04:17:09.028Z,13.44
2023-05-10T04:19:36.099Z,13.43
2023-05-10T04:22:03.592Z,13.37
2023-05-10T04:24:30.507Z,13.33
2023-05-10T04:26:57.981Z,13.28
2023-05-10T04:29:25.138Z,13.31
2023-05-10T04:31:52.106Z,13.56
2023-05-10T04:34:19.721Z,14.19
2023-05-10T04:36:46.691Z,15.03
2023-05-10T04:39:14.890Z,15.86
2023-05-10T04:41:41.814Z,16.57
2023-05-10T04:44:08.783Z,17.12
2023-05-10T04:46:35.840Z,17.54
2023-05-10T04:49:02.838Z,17.90
2023-05-10T04:51:29.796Z,18.23
2023-05-10T04:54:05.174Z,18.49
2023-05-10T04:56:33.513Z,18.62
2023-05-10T04:59:00.453Z,18.62
2023-05-10T05:01:27.416Z,18.62
2023-05-10T05:03:54.622Z,18.61
2023-05-10T05:06:26.066Z,18.62
2023-05-10T05:08:53.089Z,18.61
2023-05-10T05:11:20.534Z,18.59
2023-05-10T05:13:47.614Z,18.59
2023-05-10T05:16:14.902Z,18.57
2023-05-10T05:18:41.832Z,18.54
2023-05-10T05:21:18.730Z,18.50
2023-05-10T05:23:45.758Z,18.41
2023-05-10T05:26:12.817Z,18.35
2023-05-10T05:28:39.847Z,18.20
2023-05-10T05:31:08.771Z,17.99
2023-05-10T05:33:36.314Z,17.80
2023-05-10T05:36:04.531Z,17.66
2023-05-10T05:38:31.764Z,17.52
2023-05-10T05:40:58.761Z,17.38
2023-05-10T05:43:26.178Z,17.21
2023-05-10T05:45:54.739Z,16.95
2023-05-10T05:48:21.839Z,16.72
2023-05-10T05:50:48.804Z,16.50
2023-05-10T05:53:15.819Z,16.27
2023-05-10T05:55:53.279Z,16.00
2023-05-10T05:58:20.296Z,15.71
2023-05-10T06:00:49.503Z,15.52
2023-05-10T06:03:16.742Z,15.40
2023-05-10T06:05:43.997Z,15.35
2023-05-10T06:08:11.382Z,15.34
2023-05-10T06:10:38.466Z,15.40
2023-05-10T06:13:05.537Z,15.50
2023-05-10T06:15:33.745Z,15.64
2023-05-10T06:18:00.825Z,15.75
2023-05-10T06:20:27.928Z,15.82
2023-05-10T06:22:54.957Z,15.89
2023-05-10T06:25:22.463Z,16.01
2023-05-10T06:27:52.861Z,16.18
2023-05-10T06:30:24.136Z,16.33
2023-05-10T06:32:52.952Z,16.43
2023-05-10T06:35:20.179Z,16.53
2023-05-10T06:37:47.835Z,16.63
2023-05-10T06:40:14.875Z,16.74
2023-05-10T06:42:41.836Z,16.86
2023-05-10T06:45:10.327Z,17.00
2023-05-10T06:47:38.994Z,17.19
2023-05-10T06:50:07.217Z,17.38
2023-05-10T06:52:34.301Z,17.53
2023-05-10T06:55:01.455Z,17.64
2023-05-10T06:57:31.672Z,17.75
2023-05-10T07:00:02.637Z,17.83
2023-05-10T07:02:29.934Z,17.92
2023-05-10T07:04:58.923Z,18.02
2023-05-10T07:07:28.142Z,18.02
2023-05-10T07:09:57.743Z,17.93
2023-05-10T07:12:25.508Z,17.84
2023-05-10T07:14:52.536Z,17.72
2023-05-10T07:17:19.598Z,17.61
2023-05-10T07:19:46.648Z,17.57
2023-05-10T07:22:14.154Z,17.56
2023-05-10T07:24:41.592Z,17.46
2023-05-10T07:27:08.558Z,17.30
2023-05-10T07:29:35.926Z,17.18
2023-05-10T07:32:02.953Z,17.06
2023-05-10T07:34:31.537Z,16.95
2023-05-10T07:37:01.644Z,16.86
2023-05-10T07:39:28.878Z,16.85
2023-05-10T07:41:56.437Z,16.89
2023-05-10T07:44:23.803Z,16.95
2023-05-10T07:46:50.754Z,16.99
2023-05-10T07:49:17.709Z,16.99
2023-05-10T07:51:44.680Z,17.02
2023-05-10T07:54:11.824Z,17.13
2023-05-10T07:56:39.053Z,17.23
2023-05-10T07:59:09.282Z,17.29
2023-05-10T08:01:37.138Z,17.30
2023-05-10T08:04:04.353Z,17.30
2023-05-10T08:06:31.567Z,17.30
2023-05-10T08:08:59.448Z,17.33
2023-05-10T08:11:26.544Z,17.35
2023-05-10T08:13:53.996Z,17.33
2023-05-10T08:16:21.257Z,17.30
2023-05-10T08:18:48.630Z,17.23
2023-05-10T08:21:16.699Z,17.15
2023-05-10T08:23:45.179Z,17.08
2023-05-10T08:26:12.506Z,16.96
2023-05-10T08:28:39.632Z,16.94
2023-05-10T08:31:06.776Z,17.07
2023-05-10T08:33:34.043Z,17.26
2023-05-10T08:36:01.120Z,17.49
2023-05-10T08:38:54.142Z,17.70
2023-05-10T08:41:22.299Z,17.85
2023-05-10T08:43:49.355Z,17.93
2023-05-10T08:46:18.895Z,17.92
2023-05-10T08:48:46.634Z,17.88
2023-05-10T08:51:19.476Z,17.82
2023-05-10T08:53:47.045Z,17.86
2023-05-10T08:56:16.704Z,18.02
2023-05-10T08:58:43.684Z,18.16
2023-05-10T09:01:10.646Z,18.28
2023-05-10T09:03:39.644Z,18.36
2023-05-10T09:06:08.122Z,18.37
2023-05-10T09:08:35.445Z,18.33
2023-05-10T09:11:02.842Z,18.42
2023-05-10T09:13:29.841Z,18.53
2023-05-10T09:15:57.648Z,18.51
2023-05-10T09:18:28.195Z,18.38
2023-05-10T09:20:55.700Z,18.18
2023-05-10T09:23:22.739Z,17.96
2023-05-10T09:26:03.994Z,17.80
2023-05-10T09:29:00.638Z,17.65
2023-05-10T09:31:52.302Z,17.49
2023-05-10T09:34:20.087Z,17.38
2023-05-10T09:37:02.114Z,17.28
2023-05-10T09:39:38.791Z,17.18
2023-05-10T09:42:07.247Z,17.12
2023-05-10T09:44:34.583Z,17.08
2023-05-10T09:47:02.500Z,17.04
2023-05-10T09:49:30.037Z,16.95
2023-05-10T09:52:07.637Z,16.83
2023-05-10T09:54:35.284Z,16.74
2023-05-10T09:57:02.254Z,16.70
2023-05-10T09:59:29.880Z,16.63
2023-05-10T10:02:01.615Z,16.56
2023-05-10T10:04:30.685Z,16.54
2023-05-10T10:07:05.005Z,16.57
2023-05-10T10:09:32.644Z,16.58
2023-05-10T10:12:01.152Z,16.55
2023-05-10T10:14:28.194Z,16.54
2023-05-10T10:17:05.915Z,16.54
2023-05-10T10:19:36.771Z,16.57
2023-05-10T10:22:04.323Z,16.59
2023-05-10T10:24:31.393Z,16.62
2023-05-10T10:27:05.820Z,16.65
2023-05-10T10:29:38.214Z,16.70
2023-05-10T10:32:08.229Z,16.74
2023-05-10T10:34:35.291Z,16.78
2023-05-10T10:37:06.764Z,16.78
2023-05-10T10:39:33.729Z,16.79
2023-05-10T10:42:01.174Z,16.86
2023-05-10T10:44:36.132Z,16.94
2023-05-10T10:47:13.032Z,17.03
2023-05-10T10:49:45.673Z,17.12
2023-05-10T10:52:34.552Z,17.19
2023-05-10T10:55:11.857Z,17.25
2023-05-10T10:58:01.907Z,17.23
2023-05-10T11:00:29.469Z,17.21
2023-05-10T11:03:19.900Z,17.17
2023-05-10T11:05:50.563Z,17.06
2023-05-10T11:08:27.926Z,16.95
2023-05-10T11:11:01.287Z,16.85
2023-05-10T11:13:51.399Z,16.73
2023-05-10T11:16:20.772Z,16.60
2023-05-10T11:18:55.095Z,16.51
2023-05-10T11:21:22.430Z,16.50
2023-05-10T11:23:51.731Z,16.52
2023-05-10T11:26:19.469Z,16.56
2023-05-10T11:28:49.905Z,16.61
2023-05-10T11:31:17.930Z,16.67
2023-05-10T11:33:49.573Z,16.74
2023-05-10T11:36:24.285Z,16.84
2023-05-10T11:38:51.213Z,16.93
2023-05-10T11:41:19.437Z,16.94
2023-05-10T11:43:53.898Z,16.95
2023-05-10T11:46:22.569Z,17.03
2023-05-10T11:48:54.062Z,17.20
2023-05-10T11:51:22.066Z,17.47
2023-05-10T11:53:50.115Z,17.74
2023-05-10T11:56:17.047Z,17.96
2023-05-10T11:58:44.057Z,18.15
2023-05-10T12:01:11.719Z,18.33
2023-05-10T12:03:39.504Z,18.36
2023-05-10T12:06:07.858Z,18.37
2023-05-10T12:08:34.831Z,18.35
2023-05-10T12:11:06.634Z,18.30
2023-05-10T12:13:33.617Z,18.29
2023-05-10T12:16:00.913Z,18.31
2023-05-10T12:18:27.984Z,18.29
2023-05-10T12:20:54.985Z,18.18
2023-05-10T12:23:22.150Z,18.05
2023-05-10T12:25:49.125Z,17.88
2023-05-10T12:28:16.087Z,17.70
2023-05-10T12:30:43.102Z,17.52
2023-05-10T12:33:11.159Z,17.34
2023-05-10T12:35:46.605Z,17.16
2023-05-10T12:38:36.638Z,17.00
2023-05-10T12:41:08.428Z,16.85
2023-05-10T12:43:35.821Z,16.72
2023-05-10T12:46:07.548Z,16.61
2023-05-10T12:48:35.195Z,16.51
2023-05-10T12:51:03.034Z,16.43
2023-05-10T12:53:30.189Z,16.29
2023-05-10T12:55:57.361Z,16.10
2023-05-10T12:58:35.062Z,15.94
2023-05-10T13:01:04.062Z,15.81
2023-05-10T13:03:31.606Z,15.73
2023-05-10T13:05:58.565Z,15.72
2023-05-10T13:08:26.104Z,15.74
2023-05-10T13:10:53.114Z,15.76
2023-05-10T13:13:20.107Z,15.77
2023-05-10T13:15:47.056Z,15.80
2023-05-10T13:18:14.575Z,15.82
2023-05-10T13:20:41.756Z,15.85
2023-05-10T13:23:08.689Z,15.87
2023-05-10T13:25:35.782Z,15.89
2023-05-10T13:28:03.123Z,15.92
2023-05-10T13:30:30.148Z,15.96
2023-05-10T13:32:57.359Z,16.02
2023-05-10T13:35:24.595Z,16.07
2023-05-10T13:37:51.615Z,16.12
2023-05-10T13:40:18.957Z,16.18
2023-05-10T13:42:46.501Z,16.25
2023-05-10T13:45:14.433Z,16.36
2023-05-10T13:47:42.205Z,16.47
2023-05-10T13:50:09.384Z,16.62
2023-05-10T13:52:37.318Z,16.86
2023-05-10T13:55:04.728Z,17.19
2023-05-10T13:57:31.783Z,17.54
2023-05-10T13:59:58.725Z,17.81
2023-05-10T14:02:26.953Z,17.92
2023-05-10T14:04:54.008Z,17.93
2023-05-10T14:07:21.206Z,17.89
2023-05-10T14:09:49.035Z,17.80
2023-05-10T14:12:16.443Z,17.73
2023-05-10T14:14:43.482Z,17.67
2023-05-10T14:17:12.410Z,17.61
2023-05-10T14:19:40.072Z,17.55
2023-05-10T14:22:08.380Z,17.52
2023-05-10T14:24:35.480Z,17.56
2023-05-10T14:27:02.469Z,17.68
2023-05-10T14:29:29.466Z,17.75
2023-05-10T14:31:56.804Z,17.81
2023-05-10T14:34:25.109Z,17.88
2023-05-10T14:36:52.090Z,18.01
2023-05-10T14:39:19.338Z,18.17
2023-05-10T14:41:46.804Z,18.28
2023-05-10T14:44:14.265Z,18.34
2023-05-10T14:46:41.386Z,18.37
2023-05-10T14:49:12.166Z,18.38
2023-05-10T14:51:39.084Z,18.34
2023-05-10T14:54:06.068Z,18.30
2023-05-10T14:56:33.058Z,18.31
2023-05-10T14:59:01.262Z,18.46
2023-05-10T15:01:28.917Z,18.80
2023-05-10T15:03:56.420Z,19.18
2023-05-10T15:06:32.657Z,19.34
2023-05-10T15:08:59.630Z,19.29
2023-05-10T15:11:27.030Z,19.21
2023-05-10T15:13:54.416Z,19.07
2023-05-10T15:16:21.582Z,18.96
2023-05-10T15:18:49.333Z,18.95
2023-05-10T15:21:16.500Z,18.97
2023-05-10T15:23:43.461Z,18.96
2023-05-10T15:26:10.393Z,18.97
2023-05-10T15:28:39.085Z,18.96
2023-05-10T15:31:06.482Z,18.82
2023-05-10T15:33:33.750Z,18.53
2023-05-10T15:36:00.803Z,18.20
2023-05-10T15:38:27.742Z,17.89
2023-05-10T15:40:57.623Z,17.64
2023-05-10T15:43:24.618Z,17.40
2023-05-10T15:45:51.585Z,17.19
2023-05-10T15:48:18.551Z,16.98
2023-05-10T15:50:46.069Z,16.80
2023-05-10T15:53:13.694Z,16.66
2023-05-10T15:55:40.919Z,16.54
2023-05-10T15:58:07.972Z,16.43
2023-05-10T16:00:34.988Z,16.31
2023-05-10T16:03:02.258Z,16.20
2023-05-10T16:05:33.770Z,16.08
2023-05-10T16:08:01.874Z,15.95
2023-05-10T16:10:28.952Z,15.84
2023-05-10T16:12:58.010Z,15.75
2023-05-10T16:15:25.073Z,15.67
2023-05-10T16:17:52.323Z,15.59
2023-05-10T16:20:19.456Z,15.53
2023-05-10T16:22:46.464Z,15.47
2023-05-10T16:25:13.741Z,15.42
2023-05-10T16:27:43.207Z,15.35
2023-05-10T16:30:13.860Z,15.30
2023-05-10T16:32:41.083Z,15.24
2023-05-10T16:35:08.780Z,15.19
2023-05-10T16:37:35.976Z,15.14
2023-05-10T16:40:03.359Z,15.11
2023-05-10T16:42:30.782Z,15.08
2023-05-10T16:44:58.036Z,15.04
2023-05-10T16:47:27.039Z,14.99
2023-05-10T16:49:54.195Z,14.95
2023-05-10T16:52:22.005Z,14.91
2023-05-10T16:54:49.200Z,14.87
2023-05-10T16:57:16.285Z,14.84
2023-05-10T16:59:43.278Z,14.79
2023-05-10T17:02:11.256Z,14.74
2023-05-10T17:04:38.569Z,14.69
2023-05-10T17:07:05.533Z,14.64
2023-05-10T17:09:33.118Z,14.60
2023-05-10T17:12:00.090Z,14.56
2023-05-10T17:14:27.192Z,14.50
2023-05-10T17:16:55.271Z,14.44
2023-05-10T17:19:24.187Z,14.38
2023-05-10T17:21:52.755Z,14.32
2023-05-10T17:24:20.699Z,14.26
2023-05-10T17:26:47.637Z,14.19
2023-05-10T17:29:14.618Z,14.13
2023-05-10T17:31:41.828Z,14.06
2023-05-10T17:34:08.861Z,13.99
2023-05-10T17:36:36.224Z,13.92
2023-05-10T17:39:03.268Z,13.84
2023-05-10T17:41:30.168Z,13.78
2023-05-10T17:43:57.101Z,13.70
2023-05-10T17:46:26.533Z,13.61
2023-05-10T17:48:53.644Z,13.52
2023-05-10T17:51:20.756Z,13.41
2023-05-10T17:53:47.804Z,13.32
2023-05-10T17:56:14.820Z,13.23
2023-05-10T17:58:42.166Z,13.14
2023-05-10T18:01:09.224Z,13.05
2023-05-10T18:03:36.489Z,12.97
2023-05-10T18:06:04.556Z,12.90
2023-05-10T18:08:33.263Z,12.82
2023-05-10T18:11:00.531Z,12.73
2023-05-10T18:13:27.570Z,12.67
2023-05-10T18:15:54.532Z,12.60
2023-05-10T18:18:21.631Z,12.53
2023-05-10T18:20:51.106Z,12.44
2023-05-10T18:23:18.220Z,12.35
2023-05-10T18:25:45.480Z,12.26
2023-05-10T18:28:12.529Z,12.17
2023-05-10T18:30:40.774Z,12.06
2023-05-10T18:33:11.700Z,11.98
2023-05-10T18:35:40.308Z,11.88
2023-05-10T18:38:09.873Z,11.79
2023-05-10T18:40:37.066Z,11.68
2023-05-10T18:43:04.346Z,11.57
2023-05-10T18:45:31.692Z,11.48
2023-05-10T18:47:58.705Z,11.39
2023-05-10T18:50:26.450Z,11.31
2023-05-10T18:52:53.753Z,11.23
2023-05-10T18:55:21.750Z,11.15
2023-05-10T18:57:49.700Z,11.08
2023-05-10T19:00:16.796Z,11.01
2023-05-10T19:02:44.057Z,10.94
2023-05-10T19:05:11.181Z,10.88
2023-05-10T19:07:38.536Z,10.82
2023-05-10T19:10:06.368Z,10.77
2023-05-10T19:12:33.653Z,10.74
2023-05-10T19:15:00.876Z,10.71
2023-05-10T19:17:28.422Z,10.67
2023-05-10T19:19:57.486Z,10.62
2023-05-10T19:22:35.337Z,10.56
2023-05-10T19:25:13.160Z,10.48
2023-05-10T19:27:40.258Z,10.40
2023-05-10T19:30:09.171Z,10.33
2023-05-10T19:32:37.451Z,10.25
2023-05-10T19:35:05.062Z,10.18
2023-05-10T19:37:32.118Z,10.09
2023-05-10T19:39:59.168Z,10.01
2023-05-10T19:42:52.937Z,9.92
2023-05-10T19:45:20.428Z,9.81
2023-05-10T19:47:47.632Z,9.73
2023-05-10T19:50:17.000Z,9.66
2023-05-10T19:52:48.959Z,9.58
2023-05-10T19:55:30.024Z,9.49
2023-05-10T19:57:57.407Z,9.42
2023-05-10T20:00:25.391Z,9.36
2023-05-10T20:02:52.417Z,9.31
2023-05-10T20:05:20.470Z,9.27
2023-05-10T20:07:47.576Z,9.20
2023-05-10T20:10:15.607Z,9.12
2023-05-10T20:12:51.640Z,9.03
2023-05-10T20:15:23.028Z,8.93
2023-05-10T20:17:51.278Z,8.86
2023-05-10T20:20:20.133Z,8.80
2023-05-10T20:22:48.054Z,8.73
2023-05-10T20:25:16.026Z,8.67
2023-05-10T20:27:43.154Z,8.61
2023-05-10T20:30:10.531Z,8.57
2023-05-10T20:32:37.819Z,8.51
2023-05-10T20:35:06.016Z,8.43
2023-05-10T20:37:34.009Z,8.38
2023-05-10T20:40:01.203Z,8.33
2023-05-10T20:42:28.213Z,8.30
2023-05-10T20:44:55.195Z,8.27
2023-05-10T20:47:23.573Z,8.23
2023-05-10T20:49:50.563Z,8.20
2023-05-10T20:52:17.511Z,8.17
2023-05-10T20:54:45.501Z,8.14
2023-05-10T20:57:15.226Z,8.11
2023-05-10T20:59:42.255Z,8.08
2023-05-10T21:02:09.318Z,8.06
2023-05-10T21:04:36.791Z,8.03
2023-05-10T21:07:03.744Z,7.98
2023-05-10T21:09:30.708Z,7.96
2023-05-10T21:11:58.025Z,7.93
2023-05-10T21:14:25.051Z,7.89
2023-05-10T21:16:52.487Z,7.85
2023-05-10T21:19:19.630Z,7.82
2023-05-10T21:21:46.593Z,7.80
2023-05-10T21:24:13.868Z,7.78
2023-05-10T21:26:41.739Z,7.75
2023-05-10T21:29:08.981Z,7.72
2023-05-10T21:31:35.947Z,7.67
2023-05-10T21:34:06.878Z,7.60
2023-05-10T21:36:33.869Z,7.54
2023-05-10T21:39:00.855Z,7.49
2023-05-10T21:41:28.994Z,7.44
2023-05-10T21:43:56.698Z,7.41
2023-05-10T21:46:23.751Z,7.36
2023-05-10T21:48:50.984Z,7.33
2023-05-10T21:51:18.068Z,7.28
2023-05-10T21:53:45.044Z,7.24
2023-05-10T21:56:12.402Z,7.18
2023-05-10T21:58:39.393Z,7.14
2023-05-10T22:01:06.951Z,7.11
2023-05-10T22:03:34.317Z,7.09
2023-05-10T22:06:01.503Z,7.08
2023-05-10T22:08:28.587Z,7.06
2023-05-10T22:10:55.628Z,7.01
2023-05-10T22:13:22.585Z,6.97
2023-05-10T22:15:50.299Z,6.92
2023-05-10T22:18:17.310Z,6.88
2023-05-10T22:20:45.782Z,6.82
2023-05-10T22:23:13.262Z,6.76
2023-05-10T22:25:40.228Z,6.71
2023-05-10T22:28:08.143Z,6.67
2023-05-10T22:30:35.272Z,6.62
2023-05-10T22:33:02.970Z,6.58
2023-05-10T22:35:30.003Z,6.54
2023-05-10T22:37:57.011Z,6.50
2023-05-10T22:40:24.057Z,6.44
2023-05-10T22:42:51.104Z,6.40
2023-05-10T22:45:18.092Z,6.38
2023-05-10T22:47:45.097Z,6.34
2023-05-10T22:50:12.501Z,6.30
2023-05-10T22:52:39.617Z,6.22
2023-05-10T22:55:07.248Z,6.14
2023-05-10T22:57:34.347Z,6.07
2023-05-10T23:00:01.346Z,6.01
2023-05-10T23:02:28.332Z,5.95
2023-05-10T23:04:55.859Z,5.88
2023-05-10T23:07:22.906Z,5.84
2023-05-10T23:09:49.924Z,5.80
2023-05-10T23:12:17.107Z,5.75
2023-05-10T23:14:46.662Z,5.72
2023-05-10T23:17:13.983Z,5.67
2023-05-10T23:19:40.963Z,5.62
2023-05-10T23:22:08.589Z,5.57
2023-05-10T23:24:36.145Z,5.54
2023-05-10T23:27:04.009Z,5.53
2023-05-10T23:29:32.677Z,5.51
2023-05-10T23:31:59.668Z,5.51
2023-05-10T23:34:26.644Z,5.48
2023-05-10T23:36:53.607Z,5.46
2023-05-10T23:39:20.914Z,5.45
2023-05-10T23:41:47.995Z,5.39
2023-05-10T23:44:15.018Z,5.34
2023-05-10T23:46:42.038Z,5.30
2023-05-10T23:49:09.007Z,5.26
2023-05-10T23:51:36.157Z,5.25
2023-05-10T23:54:03.712Z,5.23
2023-05-10T23:56:30.684Z,5.23
2023-05-10T23:58:57.806Z,5.23
